This demonstration page uses our WeatherBlox Daily Observations layout. Learn more.

Left ArrowRight Arrow

Hourly Observations for November 7, 2020

Temp ( °F °C ) Dew Point ( °F °C ) Humidity (%) Winds ( mph kmh ) Pressure ( in mb ) Visibility ( mi km ) Precip ( " mm )
12:54 am 00:54 Clear 59 15 52 11.1 78 78 S 12 19 29.92 1013 10 16.0934 0 0
1:54 am 01:54 Clear 59 15 52 11.1 78 78 S 13 20 29.91 1013 10 16.0934 0 0
2:54 am 02:54 Clear 58 14.4 52 11.1 81 81 S 15 24 29.91 1013 10 16.0934 0 0
3:54 am 03:54 Clear 58 14.4 53 11.7 84 84 S 17 28 29.9 1013 10 16.0934 0 0
4:54 am 04:54 Clear 58 14.4 53 11.7 84 84 SSW 17 28 29.91 1013 10 16.0934 0 0
5:54 am 05:54 Clear 58 14.4 53 11.7 84 84 S 18 30 29.91 1013 10 16.0934 0 0
6:30 am 06:30 Mostly Cloudy 58 14.4 53 11.7 84 84 SSW 21 33 29.91 1013 10 16.0934 0 0
6:38 am 06:38 Mostly Cloudy 58 14.4 54 12.2 87 87 SSW 17 28 29.91 1013 10 16.0934 0 0
6:54 am 06:54 Cloudy 59 15 54 12.2 83 83 S 16 26 29.9 1013 10 16.0934 0 0
7:54 am 07:54 Cloudy 60 15.6 54 12.2 80 80 S 20 31 29.91 1013 10 16.0934 0 0
8:54 am 08:54 Cloudy 60 15.6 54 12.2 80 80 SSW 17 28 29.91 1013 10 16.0934 0 0
9:54 am 09:54 Mostly Cloudy 63 17.2 54 12.2 73 73 S 20 31 29.9 1013 10 16.0934 0 0
10:04 am 10:04 Partly Cloudy 63 17.2 54 12.2 73 73 SSW 23 37 29.9 1013 10 16.0934 0 0
10:54 am 10:54 Sunny 68 20 54 12.2 61 61 S 22 35 29.88 1012 10 16.0934 0 0
11:54 am 11:54 Sunny 71 21.7 53 11.7 53 53 S 23 37 29.85 1011 10 16.0934 0 0
12:54 pm 12:54 Sunny 75 23.9 52 11.1 45 45 S 25 41 29.82 1010 10 16.0934 0 0
1:54 pm 13:54 Sunny 77 25 51 10.6 40 40 S 23 37 29.8 1009 10 16.0934 0 0
2:54 pm 14:54 Sunny 77 25 51 10.6 40 40 S 26 43 29.78 1009 10 16.0934 0 0
3:54 pm 15:54 Sunny 76 24.4 51 10.6 42 42 S 25 41 29.78 1009 10 16.0934 0 0
4:54 pm 16:54 Sunny 73 22.8 51 10.6 46 46 S 25 41 29.78 1008 10 16.0934 0 0
5:54 pm 17:54 Clear 70 21.1 51 10.6 51 51 S 17 28 29.8 1009 10 16.0934 0 0
6:54 pm 18:54 Clear 67 19.4 51 10.6 57 57 S 20 31 29.81 1010 10 16.0934 0 0
7:54 pm 19:54 Clear 67 19.4 52 11.1 59 59 S 23 37 29.8 1009 10 16.0934 0 0
8:54 pm 20:54 Clear 65 18.3 51 10.6 61 61 S 22 35 29.81 1010 10 16.0934 0 0
9:54 pm 21:54 Clear 63 17.2 51 10.6 65 65 S 22 35 29.82 1010 10 16.0934 0 0
10:54 pm 22:54 Clear 63 17.2 50 10 63 63 S 23 37 29.81 1010 10 16.0934 0 0
11:54 pm 23:54 Clear 61 16.1 47 8.3 60 60 S 20 31 29.8 1009 10 16.0934 0 0

Powered by AerisWeather